Terminal Aerodrome Forecast
Issued by NWS

Home | Current Version | Previous Version | Text Only | Print | Product List | Glossary Off
Versions: 1 2 3 4 5 6 7 8 9 10 11 12 13 14 15 16

000
FTUS43 KSGF 301700
TAFJLN
TAF
KJLN 301721Z 3018/3118 21007KT P6SM BKN030 BKN040
     FM302200 18008KT P6SM VCSH SCT050
     FM310200 19005KT P6SM SCT080 SCT250=

USA.gov is the U.S. government's official web portal to all federal, state and local government web resources and services.